Tombstone, AZ

6:47 AM MST on February 01, 2015 (GMT -0700)
N7BOO | Change Station
CLOSE
Current Station
Personal Weather Station
Location: Tombstone, AZ
Elevation: 4472 ft
Nearby Weather Stations
Active Advisory: Dense Fog Advisory

Elev 4472 ft 31.73 °N, 110.05 °W | Updated 4 seconds ago

Clear
Clear
42.4 °F
Feels Like 42 °F
N
0.0
Wind Variable Wind from NNE
Gusts 1.3 mph

Today
High -- | Low -- °F
--% Chance of Precip.
Yesterday
High -- | Low -- °F
Precip. -- in
7:13 AM 5:54 PM
Waxing Gibbous, 95% visible
Pressure 30.00 in
Visibility 10.0 miles
Clouds Clear
Windchill 42 °F
Dew Point 42 °F
Humidity 99%
Rainfall 0.00 in
Snow Depth Not available.
UV 0 out of 12
Pollen .50 out of 12
Air Quality Not available.
Flu Activity Not available.
METAR KFHU 011256Z AUTO 00000KT 10SM CLR 04/03 A3003 RMK AO2 SLP159 T00440033 $

More Conditions Fewer Conditions

Pressure 30.00 in
Visibility 10.0 miles
Clouds Clear
Windchill 42 °F
Dew Point 42 °F
Humidity 99%
Rainfall 0.00 in
Snow Depth Not available.
UV 0 out of 12
Pollen .50 out of 12
Air Quality Not available.
Flu Activity Not available.
METAR KFHU 011256Z AUTO 00000KT 10SM CLR 04/03 A3003 RMK AO2 SLP159 T00440033 $

More Conditions Fewer Conditions

10-Day Weather Forecast

Almanac

Astronomy

Feb. 01, 2015 Rise Set
Actual Time
Civil Twilight
Nautical Twilight
Astronomical Twilight
Moon
Length of Visible Light
Length of Day
Tomorrow will be .
, % of the Moon is Illuminated

Today's Extremes

State Highs State Lows

Community

WunderPhotos

Upload Photos

1,792,363 photos uploaded!

WunderBlogs® & News

Nearby

Air Quality

  Air Quality AQ Index Pollutant
Not available.

Snow Depth

Station Depth Elevation

Earthquake Activity

City Distance Mag. Time & Date
Minimum magnitude displayed is 2.5.

Coastal Water Temperatures

Place Temperature

Nearby Weather Stations